createdAt,value
2023-12-13T00:01:08.258Z,8.20
2023-12-13T00:03:35.430Z,8.20
2023-12-13T00:06:02.589Z,8.20
2023-12-13T00:08:29.656Z,8.20
2023-12-13T00:10:59.559Z,8.20
2023-12-13T00:13:27.595Z,8.20
2023-12-13T00:15:54.728Z,8.20
2023-12-13T00:18:21.867Z,8.20
2023-12-13T00:20:48.976Z,8.20
2023-12-13T00:23:16.052Z,8.20
2023-12-13T00:25:43.361Z,8.10
2023-12-13T00:28:10.737Z,8.10
2023-12-13T00:30:37.923Z,8.20
2023-12-13T00:33:05.117Z,8.10
2023-12-13T00:35:32.304Z,8.10
2023-12-13T00:37:59.434Z,8.10
2023-12-13T00:40:26.532Z,8.10
2023-12-13T00:42:55.059Z,8.10
2023-12-13T00:45:22.699Z,8.10
2023-12-13T00:47:50.360Z,8.10
2023-12-13T00:50:17.456Z,8.10
2023-12-13T00:52:44.581Z,8.10
2023-12-13T00:55:11.739Z,8.10
2023-12-13T00:57:39.148Z,8.10
2023-12-13T01:00:06.755Z,8.00
2023-12-13T01:02:33.934Z,8.00
2023-12-13T01:05:01.106Z,8.00
2023-12-13T01:07:28.263Z,8.00
2023-12-13T01:09:55.336Z,8.00
2023-12-13T01:12:22.467Z,8.00
2023-12-13T01:14:49.652Z,8.00
2023-12-13T01:17:16.830Z,8.00
2023-12-13T01:19:43.972Z,8.00
2023-12-13T01:22:11.163Z,8.00
2023-12-13T01:24:38.341Z,8.00
2023-12-13T01:27:06.470Z,8.00
2023-12-13T01:29:33.609Z,8.00
2023-12-13T01:32:00.708Z,8.00
2023-12-13T01:34:27.808Z,8.00
2023-12-13T01:36:54.916Z,8.10
2023-12-13T01:39:22.027Z,8.00
2023-12-13T01:41:49.123Z,8.00
2023-12-13T01:44:16.197Z,8.00
2023-12-13T01:46:43.298Z,8.10
2023-12-13T01:49:10.540Z,8.00
2023-12-13T01:51:37.641Z,8.10
2023-12-13T01:54:05.038Z,8.00
2023-12-13T01:56:32.109Z,8.10
2023-12-13T01:58:59.210Z,8.10
2023-12-13T02:01:26.412Z,8.10
2023-12-13T02:03:53.546Z,8.10
2023-12-13T02:06:20.673Z,8.10
2023-12-13T02:08:47.848Z,8.10
2023-12-13T02:11:14.921Z,8.00
2023-12-13T02:13:42.560Z,8.10
2023-12-13T02:16:09.763Z,8.00
2023-12-13T02:18:36.961Z,8.00
2023-12-13T02:21:04.263Z,8.00
2023-12-13T02:23:31.362Z,8.00
2023-12-13T02:25:59.622Z,8.00
2023-12-13T02:28:27.233Z,8.00
2023-12-13T02:30:55.071Z,8.00
2023-12-13T02:33:28.620Z,8.00
2023-12-13T02:35:57.271Z,8.00
2023-12-13T02:38:24.538Z,8.00
2023-12-13T02:40:52.141Z,7.90
2023-12-13T02:43:19.280Z,7.90
2023-12-13T02:45:46.615Z,7.90
2023-12-13T02:48:13.733Z,7.90
2023-12-13T02:50:41.063Z,7.90
2023-12-13T02:53:08.156Z,7.80
2023-12-13T02:55:35.429Z,7.80
2023-12-13T02:58:02.661Z,7.80
2023-12-13T03:00:29.741Z,7.80
2023-12-13T03:02:57.492Z,7.80
2023-12-13T03:05:24.819Z,7.70
2023-12-13T03:07:52.053Z,7.70
2023-12-13T03:10:19.300Z,7.70
2023-12-13T03:12:46.483Z,7.70
2023-12-13T03:15:13.593Z,7.70
2023-12-13T03:17:41.009Z,7.70
2023-12-13T03:20:09.719Z,7.60
2023-12-13T03:22:36.857Z,7.60
2023-12-13T03:25:04.066Z,7.60
2023-12-13T03:27:31.497Z,7.60
2023-12-13T03:29:58.695Z,7.60
2023-12-13T03:32:25.789Z,7.60
2023-12-13T03:34:52.907Z,7.60
2023-12-13T03:37:20.050Z,7.60
2023-12-13T03:39:47.190Z,7.60
2023-12-13T03:42:14.319Z,7.50
2023-12-13T03:44:41.437Z,7.50
2023-12-13T03:47:08.826Z,7.50
2023-12-13T03:49:36.155Z,7.50
2023-12-13T03:52:03.449Z,7.50
2023-12-13T03:54:30.739Z,7.50
2023-12-13T03:56:57.826Z,7.50
2023-12-13T03:59:24.882Z,7.50
2023-12-13T04:01:52.466Z,7.50
2023-12-13T04:04:19.748Z,7.50
2023-12-13T04:06:47.054Z,7.50
2023-12-13T04:09:14.103Z,7.50
2023-12-13T04:11:41.230Z,7.40
2023-12-13T04:14:08.367Z,7.40
2023-12-13T04:16:35.507Z,7.40
2023-12-13T04:19:02.697Z,7.40
2023-12-13T04:21:29.850Z,7.40
2023-12-13T04:23:56.958Z,7.40
2023-12-13T04:26:24.083Z,7.40
2023-12-13T04:28:51.188Z,7.40
2023-12-13T04:31:18.445Z,7.40
2023-12-13T04:33:45.577Z,7.30
2023-12-13T04:36:12.702Z,7.30
2023-12-13T04:38:39.779Z,7.30
2023-12-13T04:41:06.985Z,7.30
2023-12-13T04:43:34.138Z,7.20
2023-12-13T04:46:01.287Z,7.20
2023-12-13T04:48:28.446Z,7.20
2023-12-13T04:50:55.606Z,7.10
2023-12-13T04:53:22.659Z,7.10
2023-12-13T04:55:49.778Z,7.10
2023-12-13T04:58:17.386Z,7.10
2023-12-13T05:00:44.821Z,7.10
2023-12-13T05:03:11.997Z,7.10
2023-12-13T05:05:39.127Z,7.10
2023-12-13T05:08:10.852Z,7.10
2023-12-13T05:10:41.807Z,7.10
2023-12-13T05:13:09.011Z,7.10
2023-12-13T05:15:36.128Z,7.10
2023-12-13T05:18:03.763Z,7.20
2023-12-13T05:20:31.056Z,7.20
2023-12-13T05:22:58.286Z,7.20
2023-12-13T05:25:25.473Z,7.20
2023-12-13T05:27:52.596Z,7.20
2023-12-13T05:30:19.841Z,7.20
2023-12-13T05:32:47.075Z,7.20
2023-12-13T05:35:14.478Z,7.20
2023-12-13T05:37:41.607Z,7.20
2023-12-13T05:40:08.989Z,7.20
2023-12-13T05:42:36.134Z,7.20
2023-12-13T05:45:03.338Z,7.20
2023-12-13T05:47:30.441Z,7.20
2023-12-13T05:49:58.162Z,7.20
2023-12-13T05:52:25.347Z,7.20
2023-12-13T05:54:52.488Z,7.20
2023-12-13T05:57:19.556Z,7.20
2023-12-13T05:59:46.724Z,7.10
2023-12-13T06:02:14.313Z,7.10
2023-12-13T06:04:42.359Z,7.10
2023-12-13T06:07:12.640Z,7.10
2023-12-13T06:09:41.396Z,7.10
2023-12-13T06:12:08.512Z,7.10
2023-12-13T06:14:35.601Z,7.10
2023-12-13T06:17:03.857Z,7.10
2023-12-13T06:19:31.206Z,7.10
2023-12-13T06:21:58.383Z,7.10
2023-12-13T06:24:25.480Z,7.00
2023-12-13T06:26:52.572Z,7.10
2023-12-13T06:29:19.717Z,7.10
2023-12-13T06:31:46.887Z,7.00
2023-12-13T06:34:14.092Z,7.00
2023-12-13T06:36:41.267Z,7.10
2023-12-13T06:39:12.239Z,7.00
2023-12-13T06:41:40.747Z,7.00
2023-12-13T06:44:08.362Z,7.00
2023-12-13T06:46:35.469Z,7.00
2023-12-13T06:49:02.834Z,7.00
2023-12-13T06:51:29.987Z,6.90
2023-12-13T06:53:59.835Z,6.90
2023-12-13T06:56:27.693Z,6.90
2023-12-13T06:58:54.852Z,6.90
2023-12-13T07:01:23.449Z,6.90
2023-12-13T07:03:50.712Z,6.80
2023-12-13T07:06:19.164Z,6.80
2023-12-13T07:08:46.421Z,6.80
2023-12-13T07:11:13.560Z,6.80
2023-12-13T07:13:40.958Z,6.80
2023-12-13T07:16:08.956Z,6.80
2023-12-13T07:18:36.252Z,6.80
2023-12-13T07:21:04.762Z,6.80
2023-12-13T07:23:33.125Z,6.80
2023-12-13T07:26:00.573Z,6.80
2023-12-13T07:28:27.753Z,6.80
2023-12-13T07:31:02.548Z,6.70
2023-12-13T07:33:39.108Z,6.70
2023-12-13T07:36:06.462Z,6.70
2023-12-13T07:38:33.602Z,6.70
2023-12-13T07:41:00.789Z,6.60
2023-12-13T07:43:29.221Z,6.60
2023-12-13T07:45:56.824Z,6.60
2023-12-13T07:48:28.889Z,6.60
2023-12-13T07:50:59.715Z,6.60
2023-12-13T07:53:27.024Z,6.60
2023-12-13T07:55:54.604Z,6.60
2023-12-13T07:58:21.799Z,6.60
2023-12-13T08:00:48.954Z,6.60
2023-12-13T08:03:16.161Z,6.60
2023-12-13T08:05:43.460Z,6.60
2023-12-13T08:08:10.743Z,6.60
2023-12-13T08:10:37.937Z,6.70
2023-12-13T08:13:05.167Z,6.60
2023-12-13T08:15:32.265Z,6.70
2023-12-13T08:17:59.581Z,6.70
2023-12-13T08:20:30.766Z,6.60
2023-12-13T08:22:58.292Z,6.70
2023-12-13T08:25:25.423Z,6.70
2023-12-13T08:27:52.539Z,6.70
2023-12-13T08:30:19.836Z,6.70
2023-12-13T08:32:47.018Z,6.70
2023-12-13T08:35:14.155Z,6.70
2023-12-13T08:37:41.261Z,6.70
2023-12-13T08:40:08.587Z,6.70
2023-12-13T08:42:40.095Z,6.70
2023-12-13T08:45:12.246Z,6.70
2023-12-13T08:47:39.613Z,6.80
2023-12-13T08:50:07.359Z,6.80
2023-12-13T08:52:34.667Z,6.80
2023-12-13T08:55:01.792Z,6.80
2023-12-13T08:57:28.862Z,6.80
2023-12-13T09:00:01.970Z,6.80
2023-12-13T09:02:33.232Z,6.90
2023-12-13T09:05:01.633Z,6.90
2023-12-13T09:07:29.220Z,6.90
2023-12-13T09:10:05.258Z,6.90
2023-12-13T09:12:32.362Z,7.00
2023-12-13T09:14:59.957Z,7.00
2023-12-13T09:17:27.287Z,7.00
2023-12-13T09:19:54.510Z,7.10
2023-12-13T09:22:21.723Z,7.10
2023-12-13T09:24:49.073Z,7.10
2023-12-13T09:27:16.123Z,7.20
2023-12-13T09:29:43.904Z,7.20
2023-12-13T09:32:11.080Z,7.30
2023-12-13T09:34:38.243Z,7.30
2023-12-13T09:37:05.309Z,7.30
2023-12-13T09:39:32.388Z,7.40
2023-12-13T09:42:04.145Z,7.40
2023-12-13T09:44:31.741Z,7.40
2023-12-13T09:46:59.653Z,7.50
2023-12-13T09:49:36.867Z,7.50
2023-12-13T09:52:07.155Z,7.50
2023-12-13T09:54:37.558Z,7.50
2023-12-13T09:57:08.468Z,7.60
2023-12-13T09:59:36.754Z,7.60
2023-12-13T10:02:05.363Z,7.60
2023-12-13T10:04:32.533Z,7.70
2023-12-13T10:06:59.781Z,7.70
2023-12-13T10:09:27.856Z,7.70
2023-12-13T10:11:59.820Z,7.80
2023-12-13T10:14:27.200Z,7.90
2023-12-13T10:17:03.706Z,7.90
2023-12-13T10:19:39.065Z,7.90
2023-12-13T10:22:06.892Z,8.00
2023-12-13T10:24:34.320Z,7.90
2023-12-13T10:27:02.320Z,7.90
2023-12-13T10:29:30.730Z,7.90
2023-12-13T10:31:58.709Z,7.90
2023-12-13T10:34:26.000Z,7.90
2023-12-13T10:36:53.150Z,7.80
2023-12-13T10:39:20.579Z,7.80
2023-12-13T10:41:47.718Z,7.80
2023-12-13T10:44:16.990Z,7.80
2023-12-13T10:46:47.427Z,7.80
2023-12-13T10:49:17.883Z,7.80
2023-12-13T10:51:45.175Z,7.80
2023-12-13T10:54:12.499Z,7.80
2023-12-13T10:56:42.287Z,7.80
2023-12-13T10:59:10.253Z,7.90
2023-12-13T11:01:37.480Z,7.90
2023-12-13T11:04:09.557Z,8.00
2023-12-13T11:06:37.214Z,8.10
2023-12-13T11:09:18.300Z,8.20
2023-12-13T11:11:45.447Z,8.20
2023-12-13T11:14:12.801Z,8.20
2023-12-13T11:16:40.623Z,8.20
2023-12-13T11:19:10.902Z,8.20
2023-12-13T11:21:39.542Z,8.20
2023-12-13T11:24:10.497Z,8.20
2023-12-13T11:26:39.838Z,8.20
2023-12-13T11:29:13.688Z,8.20
2023-12-13T11:31:48.507Z,8.20
2023-12-13T11:34:16.299Z,8.20
2023-12-13T11:36:43.612Z,8.20
2023-12-13T11:39:11.092Z,8.30
2023-12-13T11:41:38.285Z,8.30
2023-12-13T11:44:07.064Z,8.40
2023-12-13T11:46:34.182Z,8.40
2023-12-13T11:49:01.311Z,8.50
2023-12-13T11:51:28.659Z,8.60
2023-12-13T11:53:55.880Z,8.60
2023-12-13T11:56:23.720Z,8.60
2023-12-13T11:58:51.055Z,8.60
2023-12-13T12:01:20.466Z,8.70
2023-12-13T12:03:47.991Z,8.70
2023-12-13T12:06:18.580Z,8.80
2023-12-13T12:08:45.895Z,8.80
2023-12-13T12:11:16.008Z,8.80
2023-12-13T12:13:44.141Z,8.80
2023-12-13T12:16:14.260Z,8.80
2023-12-13T12:18:41.674Z,8.80
2023-12-13T12:21:09.594Z,8.80
2023-12-13T12:23:36.963Z,8.80
2023-12-13T12:26:10.952Z,8.80
2023-12-13T12:28:39.479Z,8.80
2023-12-13T12:31:06.921Z,8.80
2023-12-13T12:33:34.178Z,8.70
2023-12-13T12:36:01.932Z,8.70
2023-12-13T12:38:29.549Z,8.60
2023-12-13T12:40:56.894Z,8.60
2023-12-13T12:43:25.696Z,8.50
2023-12-13T12:45:52.836Z,8.40
2023-12-13T12:48:19.968Z,8.40
2023-12-13T12:50:47.199Z,8.30
2023-12-13T12:53:14.532Z,8.30
2023-12-13T12:55:42.220Z,8.20
2023-12-13T12:58:09.789Z,8.20
2023-12-13T13:00:36.970Z,8.20
2023-12-13T13:03:08.034Z,8.20
2023-12-13T13:05:35.702Z,8.20
2023-12-13T13:08:03.521Z,8.20
2023-12-13T13:10:30.828Z,8.20
2023-12-13T13:12:58.419Z,8.20
2023-12-13T13:15:25.575Z,8.20
2023-12-13T13:17:53.166Z,8.20
2023-12-13T13:20:20.565Z,8.20
2023-12-13T13:22:49.174Z,8.20
2023-12-13T13:25:17.180Z,8.20
2023-12-13T13:27:45.652Z,8.20
2023-12-13T13:30:15.169Z,8.20
2023-12-13T13:32:43.023Z,8.20
2023-12-13T13:35:10.388Z,8.20
2023-12-13T13:37:38.121Z,8.20
2023-12-13T13:40:06.103Z,8.20
2023-12-13T13:42:33.184Z,8.20
2023-12-13T13:45:00.303Z,8.20
2023-12-13T13:47:27.407Z,8.20
2023-12-13T13:49:54.818Z,8.20
2023-12-13T13:52:22.637Z,8.20
2023-12-13T13:54:49.798Z,8.10
2023-12-13T13:57:16.884Z,8.10
2023-12-13T13:59:44.295Z,8.10
2023-12-13T14:02:12.956Z,8.10
2023-12-13T14:04:40.633Z,8.10
2023-12-13T14:07:07.831Z,8.10
2023-12-13T14:09:35.111Z,8.00
2023-12-13T14:12:02.393Z,8.00
2023-12-13T14:14:29.489Z,8.00
2023-12-13T14:16:56.637Z,8.00
2023-12-13T14:19:24.221Z,8.00
2023-12-13T14:21:51.832Z,8.00
2023-12-13T14:24:18.982Z,8.00
2023-12-13T14:26:46.207Z,8.00
2023-12-13T14:29:14.175Z,8.00
2023-12-13T14:31:41.268Z,8.00
2023-12-13T14:34:08.635Z,8.00
2023-12-13T14:36:35.776Z,8.00
2023-12-13T14:39:03.519Z,8.00
2023-12-13T14:41:30.640Z,8.00
2023-12-13T14:43:57.745Z,8.00
2023-12-13T14:46:24.890Z,7.90
2023-12-13T14:48:52.417Z,7.90
2023-12-13T14:51:19.772Z,7.90
2023-12-13T14:53:46.837Z,7.90
2023-12-13T14:56:13.995Z,7.90
2023-12-13T14:58:41.801Z,7.90
2023-12-13T15:01:09.099Z,7.90
2023-12-13T15:03:36.275Z,7.90
2023-12-13T15:06:03.794Z,7.90
2023-12-13T15:08:30.935Z,7.90
2023-12-13T15:10:58.324Z,7.90
2023-12-13T15:13:28.308Z,7.90
2023-12-13T15:15:55.392Z,7.90
2023-12-13T15:18:22.526Z,7.90
2023-12-13T15:20:49.656Z,7.80
2023-12-13T15:23:19.380Z,7.80
2023-12-13T15:25:46.996Z,7.80
2023-12-13T15:28:14.106Z,7.80
2023-12-13T15:30:41.204Z,7.80
2023-12-13T15:33:09.070Z,7.80
2023-12-13T15:35:36.372Z,7.80
2023-12-13T15:38:03.492Z,7.70
2023-12-13T15:40:30.691Z,7.70
2023-12-13T15:42:59.703Z,7.70
2023-12-13T15:45:26.804Z,7.70
2023-12-13T15:47:53.962Z,7.70
2023-12-13T15:50:21.301Z,7.70
2023-12-13T15:52:48.410Z,7.70
2023-12-13T15:55:17.250Z,7.60
2023-12-13T15:57:44.401Z,7.60
2023-12-13T16:00:11.715Z,7.60
2023-12-13T16:02:42.249Z,7.60
2023-12-13T16:05:10.027Z,7.60
2023-12-13T16:07:37.483Z,7.60
2023-12-13T16:10:04.947Z,7.60
2023-12-13T16:12:32.704Z,7.60
2023-12-13T16:15:02.572Z,7.60
2023-12-13T16:17:30.063Z,7.60
2023-12-13T16:19:57.250Z,7.60
2023-12-13T16:22:24.386Z,7.60
2023-12-13T16:24:51.518Z,7.50
2023-12-13T16:27:18.652Z,7.50
2023-12-13T16:29:45.791Z,7.50
2023-12-13T16:32:12.985Z,7.50
2023-12-13T16:34:40.225Z,7.50
2023-12-13T16:37:07.292Z,7.50
2023-12-13T16:39:34.758Z,7.50
2023-12-13T16:42:01.858Z,7.50
2023-12-13T16:44:28.981Z,7.50
2023-12-13T16:46:56.133Z,7.40
2023-12-13T16:49:24.558Z,7.40
2023-12-13T16:51:52.189Z,7.40
2023-12-13T16:54:20.390Z,7.40
2023-12-13T16:56:48.009Z,7.40
2023-12-13T16:59:15.181Z,7.30
2023-12-13T17:01:42.983Z,7.30
2023-12-13T17:04:10.164Z,7.20
2023-12-13T17:06:37.365Z,7.20
2023-12-13T17:09:08.008Z,7.20
2023-12-13T17:11:35.457Z,7.20
2023-12-13T17:14:02.515Z,7.20
2023-12-13T17:16:29.691Z,7.10
2023-12-13T17:18:57.284Z,7.10
2023-12-13T17:21:24.531Z,7.10
2023-12-13T17:23:51.697Z,7.10
2023-12-13T17:26:22.133Z,7.10
2023-12-13T17:28:49.314Z,7.10
2023-12-13T17:31:16.555Z,7.10
2023-12-13T17:33:43.811Z,7.10
2023-12-13T17:36:11.642Z,7.10
2023-12-13T17:38:40.617Z,7.00
2023-12-13T17:41:09.360Z,7.00
2023-12-13T17:43:36.491Z,7.00
2023-12-13T17:46:03.695Z,7.00
2023-12-13T17:48:30.830Z,7.00
2023-12-13T17:50:58.126Z,6.90
2023-12-13T17:53:25.246Z,6.90
2023-12-13T17:55:52.410Z,6.90
2023-12-13T17:58:19.806Z,6.90
2023-12-13T18:00:51.349Z,6.90
2023-12-13T18:03:18.614Z,6.80
2023-12-13T18:05:45.852Z,6.80
2023-12-13T18:08:13.088Z,6.80
2023-12-13T18:10:40.263Z,6.80
2023-12-13T18:13:07.639Z,6.80
2023-12-13T18:15:34.725Z,6.80
2023-12-13T18:18:02.800Z,6.80
2023-12-13T18:20:29.949Z,6.80
2023-12-13T18:22:59.833Z,6.80
2023-12-13T18:25:27.167Z,6.80
2023-12-13T18:27:54.294Z,6.80
2023-12-13T18:30:21.391Z,6.80
2023-12-13T18:32:48.642Z,6.80
2023-12-13T18:35:15.912Z,6.80
2023-12-13T18:37:43.064Z,6.80
2023-12-13T18:40:10.312Z,6.80
2023-12-13T18:42:37.754Z,6.80
2023-12-13T18:45:05.019Z,6.80
2023-12-13T18:47:32.174Z,6.80
2023-12-13T18:50:01.152Z,6.80
2023-12-13T18:52:28.783Z,6.80
2023-12-13T18:54:56.021Z,6.70
2023-12-13T18:57:23.572Z,6.70
2023-12-13T18:59:50.673Z,6.70
2023-12-13T19:02:17.926Z,6.70
2023-12-13T19:04:45.124Z,6.70
2023-12-13T19:07:15.256Z,6.60
2023-12-13T19:09:42.312Z,6.60
2023-12-13T19:12:09.447Z,6.60
2023-12-13T19:14:36.559Z,6.60
2023-12-13T19:17:03.874Z,6.60
2023-12-13T19:19:31.134Z,6.60
2023-12-13T19:21:58.296Z,6.50
2023-12-13T19:24:25.358Z,6.50
2023-12-13T19:26:52.563Z,6.50
2023-12-13T19:29:22.917Z,6.50
2023-12-13T19:31:53.275Z,6.50
2023-12-13T19:34:30.567Z,6.50
2023-12-13T19:37:06.491Z,6.40
2023-12-13T19:39:33.608Z,6.50
2023-12-13T19:42:00.695Z,6.40
2023-12-13T19:44:27.774Z,6.40
2023-12-13T19:46:55.234Z,6.40
2023-12-13T19:49:22.602Z,6.40
2023-12-13T19:51:49.750Z,6.40
2023-12-13T19:54:16.919Z,6.30
2023-12-13T19:56:44.015Z,6.40
2023-12-13T19:59:11.227Z,6.30
2023-12-13T20:01:39.293Z,6.30
2023-12-13T20:04:06.651Z,6.30
2023-12-13T20:06:33.816Z,6.30
2023-12-13T20:09:02.091Z,6.30
2023-12-13T20:11:30.761Z,6.20
2023-12-13T20:13:59.213Z,6.20
2023-12-13T20:16:27.777Z,6.20
2023-12-13T20:18:55.009Z,6.10
2023-12-13T20:21:22.647Z,6.10
2023-12-13T20:23:49.781Z,6.10
2023-12-13T20:26:16.848Z,6.10
2023-12-13T20:28:44.056Z,6.10
2023-12-13T20:31:11.194Z,6.10
2023-12-13T20:33:38.427Z,6.10
2023-12-13T20:36:08.845Z,6.10
2023-12-13T20:38:35.969Z,6.10
2023-12-13T20:41:04.001Z,6.00
2023-12-13T20:43:31.231Z,6.10
2023-12-13T20:45:58.453Z,6.00
2023-12-13T20:48:25.670Z,6.00
2023-12-13T20:50:52.874Z,6.00
2023-12-13T20:53:20.003Z,6.00
2023-12-13T20:55:48.414Z,6.00
2023-12-13T20:58:15.556Z,6.00
2023-12-13T21:00:42.674Z,6.00
2023-12-13T21:03:09.827Z,6.00
2023-12-13T21:05:37.609Z,6.00
2023-12-13T21:08:04.811Z,6.00
2023-12-13T21:10:32.034Z,6.00
2023-12-13T21:12:59.146Z,6.00
2023-12-13T21:15:26.278Z,6.00
2023-12-13T21:17:53.380Z,6.00
2023-12-13T21:20:20.493Z,6.00
2023-12-13T21:22:47.598Z,6.00
2023-12-13T21:25:14.774Z,5.90
2023-12-13T21:27:41.907Z,5.90
2023-12-13T21:30:09.283Z,5.90
2023-12-13T21:32:36.907Z,5.90
2023-12-13T21:35:04.530Z,5.90
2023-12-13T21:37:31.712Z,5.90
2023-12-13T21:39:58.880Z,5.90
2023-12-13T21:42:26.139Z,5.90
2023-12-13T21:44:53.201Z,5.90
2023-12-13T21:47:20.892Z,5.90
2023-12-13T21:49:48.316Z,5.90
2023-12-13T21:52:19.168Z,5.90
2023-12-13T21:54:49.264Z,5.90
2023-12-13T21:57:16.349Z,5.90
2023-12-13T21:59:43.422Z,5.90
2023-12-13T22:02:10.660Z,5.80
2023-12-13T22:04:37.980Z,5.80
2023-12-13T22:07:05.144Z,5.80
2023-12-13T22:09:32.248Z,5.80
2023-12-13T22:11:59.316Z,5.80
2023-12-13T22:14:26.473Z,5.80
2023-12-13T22:16:53.661Z,5.80
2023-12-13T22:19:39.605Z,5.80
2023-12-13T22:22:06.828Z,5.80
2023-12-13T22:24:33.920Z,5.80
2023-12-13T22:27:04.177Z,5.80
2023-12-13T22:29:31.306Z,5.80
2023-12-13T22:31:58.438Z,5.80
2023-12-13T22:34:25.665Z,5.80
2023-12-13T22:36:52.762Z,5.80
2023-12-13T22:39:19.867Z,5.80
2023-12-13T22:41:46.927Z,5.80
2023-12-13T22:44:14.198Z,5.80
2023-12-13T22:46:41.446Z,5.70
2023-12-13T22:49:09.511Z,5.70
2023-12-13T22:52:17.269Z,5.70
2023-12-13T22:54:23.758Z,5.70
2023-12-13T22:56:51.117Z,5.70
2023-12-13T22:59:18.225Z,5.70
2023-12-13T23:01:45.835Z,5.70
2023-12-13T23:04:14.053Z,5.70
2023-12-13T23:06:41.511Z,5.70
2023-12-13T23:09:12.199Z,5.70
2023-12-13T23:11:42.593Z,5.70
2023-12-13T23:14:09.746Z,5.70
2023-12-13T23:16:38.276Z,5.70
2023-12-13T23:19:05.857Z,5.70
2023-12-13T23:21:33.050Z,5.70
2023-12-13T23:24:00.212Z,5.70
2023-12-13T23:26:27.419Z,5.60
2023-12-13T23:28:54.531Z,5.60
2023-12-13T23:31:29.404Z,5.60
2023-12-13T23:34:00.787Z,5.60
2023-12-13T23:36:28.018Z,5.60
2023-12-13T23:38:55.552Z,5.60
2023-12-13T23:41:23.447Z,5.60
2023-12-13T23:43:50.760Z,5.60
2023-12-13T23:46:17.952Z,5.60
2023-12-13T23:48:46.103Z,5.60
2023-12-13T23:51:14.669Z,5.60
2023-12-13T23:53:41.858Z,5.60
2023-12-13T23:56:21.700Z,5.60
2023-12-13T23:58:48.854Z,5.60
